Time;durP1;ratioP1;P1;durP2;ratioP2;P2;SDS_P1;SDS_P2;PMS_P1;PMS_P2;Temp;Humidity;BMP_temperature;BMP_pressure;BME280_temperature;BME280_humidity;BME280_pressure;Samples;Min_cycle;Max_cycle;Signal;HPM_P1;HPM_P2
2022/11/07 00:02:06;;;;;;;0.90;0.80;;;;;;;4.91;61.82;92639.91;4877887;29;20449;-78
2022/11/07 00:04:33;;;;;;;1.80;1.10;;;;;;;4.89;61.93;92637.56;4874243;29;20515;-78
2022/11/07 00:06:58;;;;;;;1.42;0.80;;;;;;;4.87;61.87;92636.25;4871896;29;20052;-77
2022/11/07 00:09:24;;;;;;;1.48;0.93;;;;;;;4.87;61.89;92638.84;4877393;29;20092;-78
2022/11/07 00:11:50;;;;;;;1.20;0.80;;;;;;;4.82;61.95;92628.41;4875902;29;20044;-77
2022/11/07 00:14:16;;;;;;;1.05;0.90;;;;;;;4.84;62.01;92639.31;4858799;29;20053;-77
2022/11/07 00:16:43;;;;;;;1.58;1.17;;;;;;;4.84;62.11;92641.91;4857596;29;20045;-77
2022/11/07 00:19:10;;;;;;;1.67;1.02;;;;;;;4.82;61.62;92639.59;4858649;29;20074;-77
2022/11/07 00:21:37;;;;;;;1.55;0.93;;;;;;;4.82;63.10;92642.19;4857749;29;20041;-78
2022/11/07 00:24:03;;;;;;;1.73;1.10;;;;;;;4.78;64.08;92644.47;4857720;29;20433;-78
2022/11/07 00:26:28;;;;;;;1.20;1.00;;;;;;;4.77;64.81;92648.09;4858691;29;20045;-77
2022/11/07 00:28:55;;;;;;;1.35;0.90;;;;;;;4.74;64.46;92648.59;4890606;29;20049;-77
2022/11/07 00:31:20;;;;;;;1.08;0.80;;;;;;;4.71;63.93;92649.09;4877208;29;20467;-77
2022/11/07 00:33:46;;;;;;;2.40;1.10;;;;;;;4.69;63.80;92645.94;4877137;29;20142;-78
2022/11/07 00:36:20;;;;;;;1.55;0.98;;;;;;;4.71;63.34;92649.09;4871692;29;20068;-77
2022/11/07 00:38:46;;;;;;;1.02;0.85;;;;;;;4.71;63.42;92643.91;4858288;29;20070;-78
2022/11/07 00:41:12;;;;;;;1.33;0.90;;;;;;;4.70;64.41;92642.31;4858567;29;20439;-78
2022/11/07 00:43:38;;;;;;;1.10;0.80;;;;;;;4.67;64.16;92648.00;4874416;29;20076;-77
2022/11/07 00:46:05;;;;;;;1.85;1.00;;;;;;;4.65;63.75;92642.28;4876466;29;20396;-78
2022/11/07 00:48:31;;;;;;;1.23;0.90;;;;;;;4.63;64.00;92633.97;4858502;29;20555;-77
2022/11/07 00:51:03;;;;;;;1.48;0.80;;;;;;;4.59;64.01;92627.69;4857423;29;20069;-77
2022/11/07 00:53:29;;;;;;;1.48;0.68;;;;;;;4.63;64.10;92630.59;4857210;29;20105;-77
2022/11/07 00:55:59;;;;;;;1.63;1.10;;;;;;;4.62;64.48;92629.03;4857361;29;20049;-77
2022/11/07 00:58:25;;;;;;;0.95;0.80;;;;;;;4.62;63.99;92627.22;4856282;29;20033;-77
2022/11/07 01:00:50;;;;;;;1.30;1.00;;;;;;;4.61;63.13;92630.03;4858457;29;20125;-77
2022/11/07 01:06:02;;;;;;;0.95;0.82;;;;;;;4.59;62.98;92632.88;4876992;29;20045;-77
2022/11/07 01:08:28;;;;;;;1.40;0.80;;;;;;;4.59;63.67;92636.28;4862857;29;20038;-77
2022/11/07 01:10:54;;;;;;;1.02;0.80;;;;;;;4.57;63.86;92632.34;4858710;29;20571;-77
2022/11/07 01:13:20;;;;;;;1.58;1.00;;;;;;;4.55;63.60;92637.00;4857591;29;20037;-77
2022/11/07 01:15:46;;;;;;;1.25;0.80;;;;;;;4.49;63.70;92625.78;4858321;29;20037;-77
2022/11/07 01:18:11;;;;;;;1.30;0.90;;;;;;;4.51;63.87;92633.34;4851039;29;20033;-77
2022/11/07 01:20:37;;;;;;;1.17;0.80;;;;;;;4.49;63.31;92627.63;4858247;29;20052;-77
2022/11/07 01:23:03;;;;;;;1.40;1.00;;;;;;;4.48;63.30;92639.78;4856986;29;20057;-77
2022/11/07 01:25:28;;;;;;;1.40;1.00;;;;;;;4.47;62.98;92643.41;4857032;29;20071;-77
2022/11/07 01:27:54;;;;;;;1.60;0.80;;;;;;;4.47;62.75;92642.63;4857091;29;20045;-77
2022/11/07 01:30:19;;;;;;;1.05;0.80;;;;;;;4.46;62.55;92635.84;4857064;29;20053;-77
2022/11/07 01:32:46;;;;;;;0.82;0.73;;;;;;;4.47;63.10;92637.44;4861561;29;20062;-77
2022/11/07 01:35:11;;;;;;;1.13;0.70;;;;;;;4.45;63.11;92626.53;4875911;29;20046;-78
2022/11/07 01:37:37;;;;;;;1.83;0.88;;;;;;;4.40;63.28;92642.81;4878758;29;20037;-77
2022/11/07 01:40:03;;;;;;;0.75;0.65;;;;;;;4.38;62.90;92642.28;4863748;29;20041;-77
2022/11/07 01:42:29;;;;;;;0.80;0.80;;;;;;;4.36;62.11;92646.91;4860613;29;20044;-77
2022/11/07 01:44:58;;;;;;;1.15;0.80;;;;;;;4.35;61.87;92646.13;4878869;29;20116;-77
2022/11/07 01:47:28;;;;;;;1.42;0.85;;;;;;;4.37;61.96;92648.50;4878677;29;20125;-77
2022/11/07 01:49:54;;;;;;;2.10;0.95;;;;;;;4.36;61.92;92652.88;4870244;29;20048;-77
2022/11/07 01:52:25;;;;;;;2.00;0.80;;;;;;;4.36;61.58;92652.09;4861405;29;20488;-77
2022/11/07 01:55:09;;;;;;;2.08;0.85;;;;;;;4.35;61.92;92647.97;4861324;29;20034;-77
2022/11/07 01:57:43;;;;;;;0.75;0.70;;;;;;;4.36;62.53;92646.91;4861699;29;20045;-77
2022/11/07 02:00:13;;;;;;;0.80;0.80;;;;;;;4.34;62.97;92644.56;4869369;29;20308;-77
2022/11/07 02:02:39;;;;;;;1.40;0.85;;;;;;;4.33;63.97;92637.81;4861214;29;20034;-77
2022/11/07 02:05:07;;;;;;;1.90;0.98;;;;;;;4.33;63.33;92639.63;4860059;29;20497;-77
2022/11/07 02:07:34;;;;;;;2.42;1.17;;;;;;;4.29;63.45;92636.75;4859976;29;20112;-77
2022/11/07 02:10:00;;;;;;;1.00;0.80;;;;;;;4.33;63.07;92639.63;4860645;29;20054;-77
2022/11/07 02:12:27;;;;;;;1.15;0.90;;;;;;;4.30;65.09;92640.91;4863174;29;20036;-77
2022/11/07 02:14:54;;;;;;;0.90;0.70;;;;;;;4.26;64.66;92637.22;4879324;29;20033;-77
2022/11/07 02:17:20;;;;;;;1.60;0.90;;;;;;;4.22;64.62;92641.34;4879186;29;20090;-77
2022/11/07 02:19:49;;;;;;;2.28;1.00;;;;;;;4.22;64.28;92632.78;4878096;29;20045;-77
2022/11/07 02:22:18;;;;;;;1.58;0.90;;;;;;;4.19;64.62;92631.47;4862741;29;20543;-77
2022/11/07 02:24:44;;;;;;;2.03;1.10;;;;;;;4.20;64.35;92633.00;4878017;29;20033;-77
2022/11/07 02:27:13;;;;;;;1.65;0.90;;;;;;;4.19;64.81;92626.28;4879239;29;20045;-77
2022/11/07 02:29:43;;;;;;;1.15;0.82;;;;;;;4.17;65.10;92623.94;4860018;29;20508;-77
2022/11/07 02:32:10;;;;;;;1.75;1.00;;;;;;;4.19;65.05;92631.47;4860120;29;20053;-77
2022/11/07 02:34:36;;;;;;;1.35;0.88;;;;;;;4.18;64.98;92635.06;4860644;29;20069;-77
2022/11/07 02:37:06;;;;;;;1.67;0.93;;;;;;;4.21;64.75;92632.00;4858748;29;20461;-77
2022/11/07 02:39:32;;;;;;;0.98;0.80;;;;;;;4.18;64.77;92638.44;4860480;29;20029;-77
2022/11/07 02:41:59;;;;;;;2.70;1.00;;;;;;;4.15;64.85;92625.97;4858765;29;20174;-77
2022/11/07 02:44:26;;;;;;;1.33;0.90;;;;;;;4.17;65.38;92626.50;4875806;29;20044;-77
2022/11/07 02:46:51;;;;;;;1.38;1.00;;;;;;;4.16;65.14;92626.75;4878959;29;20086;-77
2022/11/07 02:49:17;;;;;;;1.17;0.88;;;;;;;4.15;65.53;92630.38;4878140;29;20056;-77
2022/11/07 02:51:43;;;;;;;2.88;1.00;;;;;;;4.12;65.54;92631.66;4876462;29;20503;-77
2022/11/07 02:54:08;;;;;;;2.53;1.10;;;;;;;4.06;65.66;92621.47;4858511;29;20037;-77
2022/11/07 02:56:34;;;;;;;1.73;1.00;;;;;;;4.11;65.56;92637.84;4858984;29;20536;-77
2022/11/07 02:58:59;;;;;;;1.63;0.90;;;;;;;4.11;65.29;92631.88;4858610;29;20041;-77
2022/11/07 03:01:25;;;;;;;1.95;0.98;;;;;;;4.13;65.12;92622.06;4858973;29;20057;-77
2022/11/07 03:03:50;;;;;;;1.48;0.98;;;;;;;4.12;65.15;92630.84;4858497;29;20037;-77
2022/11/07 03:06:22;;;;;;;1.63;1.00;;;;;;;4.11;65.48;92629.28;4860131;29;20056;-77
2022/11/07 03:08:48;;;;;;;1.27;1.00;;;;;;;4.10;65.12;92622.56;4858601;29;20068;-77
2022/11/07 03:11:18;;;;;;;1.05;0.82;;;;;;;4.10;65.25;92632.91;4858743;29;20488;-77
2022/11/07 03:13:46;;;;;;;1.50;0.90;;;;;;;4.12;64.91;92634.25;4859955;29;20461;-77
2022/11/07 03:16:12;;;;;;;1.63;1.05;;;;;;;4.13;64.62;92632.44;4874145;29;20082;-77
2022/11/07 03:18:37;;;;;;;1.38;1.00;;;;;;;4.12;63.97;92625.66;4866350;29;20033;-77
2022/11/07 03:21:04;;;;;;;0.90;0.70;;;;;;;4.14;64.80;92633.97;4858921;29;20116;-75
2022/11/07 03:23:30;;;;;;;1.10;0.90;;;;;;;4.13;64.96;92627.25;4858392;29;20073;-77
2022/11/07 03:25:55;;;;;;;0.90;0.80;;;;;;;4.09;65.29;92620.97;4858706;29;20400;-77
2022/11/07 03:28:21;;;;;;;1.45;0.90;;;;;;;4.08;66.15;92629.78;4858385;29;20041;-77
2022/11/07 03:30:46;;;;;;;1.58;1.00;;;;;;;4.07;65.50;92635.97;4858508;29;20072;-77
2022/11/07 03:33:12;;;;;;;1.02;0.80;;;;;;;4.08;64.93;92632.38;4859471;29;20106;-77
2022/11/07 03:35:37;;;;;;;1.92;1.00;;;;;;;4.09;65.18;92626.94;4859549;29;20105;-77
2022/11/07 03:38:03;;;;;;;1.38;1.27;;;;;;;4.10;65.08;92638.09;4858196;29;20061;-77
2022/11/07 03:40:28;;;;;;;2.10;1.08;;;;;;;4.09;65.21;92642.47;4859133;29;20073;-77
2022/11/07 03:42:54;;;;;;;1.15;0.85;;;;;;;4.11;65.82;92640.44;4858111;29;20559;-77
2022/11/07 03:45:20;;;;;;;1.70;0.90;;;;;;;4.10;66.38;92636.28;4858238;29;20504;-77
2022/11/07 03:47:46;;;;;;;2.00;1.00;;;;;;;4.05;66.03;92628.44;4858790;29;20120;-77
2022/11/07 03:50:16;;;;;;;1.73;0.98;;;;;;;4.07;66.02;92634.16;4858746;29;20048;-78
2022/11/07 03:52:42;;;;;;;1.80;1.00;;;;;;;4.04;66.53;92624.28;4871749;29;20042;-77
2022/11/07 03:55:09;;;;;;;1.25;0.90;;;;;;;4.03;67.82;92634.88;4869916;29;20045;-77
2022/11/07 03:57:35;;;;;;;1.80;1.00;;;;;;;4.02;66.80;92626.34;4840107;29;20129;-77
2022/11/07 04:00:00;;;;;;;1.73;1.00;;;;;;;4.00;66.94;92630.19;4840890;29;20048;-77
2022/11/07 04:02:26;;;;;;;0.93;0.80;;;;;;;4.02;66.40;92636.69;4851603;29;20094;-77
2022/11/07 04:04:51;;;;;;;1.63;0.80;;;;;;;3.97;66.39;92637.44;4873482;29;20408;-77
2022/11/07 04:07:17;;;;;;;6.82;3.35;;;;;;;3.97;66.48;92650.38;4872986;29;20085;-77
2022/11/07 04:09:43;;;;;;;6.93;2.80;;;;;;;3.99;66.37;92649.38;4842026;29;20105;-77
2022/11/07 04:17:37;;;;;;;1.10;0.95;;;;;;;4.01;65.87;92647.28;4876054;29;20053;-77
2022/11/07 04:20:03;;;;;;;1.88;1.10;;;;;;;4.04;65.62;92650.19;4866709;29;20053;-77
2022/11/07 04:22:29;;;;;;;1.70;0.98;;;;;;;4.05;66.47;92649.16;4846341;29;20049;-77
2022/11/07 04:24:54;;;;;;;1.08;0.90;;;;;;;4.01;67.26;92645.50;4874021;29;20049;-77
2022/11/07 04:30:18;;;;;;;1.23;0.85;;;;;;;3.96;67.15;92643.66;4877074;29;20037;-77
2022/11/07 04:32:53;;;;;;;1.25;0.90;;;;;;;3.95;66.26;92647.25;4870725;29;20075;-77
2022/11/07 04:35:20;;;;;;;1.25;0.90;;;;;;;3.91;65.67;92655.75;4873391;29;20045;-77
2022/11/07 04:37:46;;;;;;;1.40;0.85;;;;;;;3.92;65.67;92655.50;4877110;29;20112;-77
2022/11/07 04:40:13;;;;;;;1.02;0.80;;;;;;;3.91;65.59;92646.16;4874933;29;20049;-77
2022/11/07 04:42:39;;;;;;;1.23;0.93;;;;;;;3.94;65.74;92645.69;4877145;29;20043;-77
2022/11/07 04:45:05;;;;;;;1.55;0.95;;;;;;;3.94;66.13;92645.69;4860430;29;20488;-77
2022/11/07 04:47:31;;;;;;;1.20;0.80;;;;;;;3.88;66.15;92654.41;4858938;29;20061;-77
2022/11/07 04:49:57;;;;;;;1.73;0.93;;;;;;;3.85;66.45;92647.13;4857273;29;20508;-77
2022/11/07 04:52:22;;;;;;;1.75;0.82;;;;;;;3.83;66.44;92654.34;4861799;29;20036;-77
2022/11/07 04:54:48;;;;;;;1.02;0.82;;;;;;;3.80;66.77;92657.41;4865186;29;20133;-77
2022/11/07 04:57:14;;;;;;;1.42;0.98;;;;;;;3.80;66.40;92654.03;4858466;29;20046;-77
2022/11/07 04:59:40;;;;;;;0.93;0.80;;;;;;;3.78;66.32;92651.69;4858341;29;20029;-77
2022/11/07 05:02:08;;;;;;;1.20;0.90;;;;;;;3.77;65.88;92652.72;4857377;29;20038;-77
2022/11/07 05:04:34;;;;;;;2.22;1.15;;;;;;;3.80;66.87;92665.19;4859482;29;20088;-77
2022/11/07 05:06:59;;;;;;;1.52;0.85;;;;;;;3.74;67.05;92655.81;4829511;29;20500;-77
2022/11/07 05:09:26;;;;;;;0.70;0.70;;;;;;;3.73;66.99;92660.19;4861645;29;20492;-77
2022/11/07 05:11:52;;;;;;;1.10;0.90;;;;;;;3.69;67.24;92669.47;4891792;29;20128;-77
2022/11/07 05:14:18;;;;;;;3.30;1.00;;;;;;;3.66;67.12;92667.34;4891869;29;20453;-77
2022/11/07 05:16:44;;;;;;;1.10;0.80;;;;;;;3.65;66.76;92667.59;4867939;29;20056;-77
2022/11/07 05:19:17;;;;;;;1.35;0.90;;;;;;;3.67;66.64;92681.06;4880468;29;20028;-77
2022/11/07 05:21:43;;;;;;;1.15;0.75;;;;;;;3.67;66.37;92681.06;4877711;29;20052;-77
2022/11/07 05:24:10;;;;;;;0.75;0.70;;;;;;;3.65;65.88;92681.31;4880425;29;20044;-77
2022/11/07 05:26:35;;;;;;;2.10;0.90;;;;;;;3.63;65.49;92683.34;4865868;29;20148;-76
2022/11/07 05:29:01;;;;;;;1.25;0.88;;;;;;;3.67;65.53;92688.81;4860393;29;20132;-77
2022/11/07 05:31:26;;;;;;;1.10;0.80;;;;;;;3.64;66.53;92690.09;4861583;29;20084;-77
2022/11/07 05:33:52;;;;;;;0.90;0.80;;;;;;;3.59;66.28;92686.66;4861252;29;20028;-77
2022/11/07 05:36:20;;;;;;;0.80;0.75;;;;;;;3.61;66.09;92694.97;4862886;29;20087;-77
2022/11/07 05:38:51;;;;;;;1.42;1.00;;;;;;;3.60;66.25;92701.16;4861396;29;20021;-77
2022/11/07 05:41:19;;;;;;;1.15;1.00;;;;;;;3.59;65.31;92704.78;4857018;29;20053;-78
2022/11/07 05:43:45;;;;;;;1.45;0.85;;;;;;;3.62;64.90;92710.25;4858827;29;20504;-78
2022/11/07 05:46:12;;;;;;;1.17;0.80;;;;;;;3.63;65.04;92700.69;4860334;29;20057;-78
2022/11/07 05:48:38;;;;;;;1.20;0.80;;;;;;;3.64;64.45;92697.06;4850561;29;20548;-77
2022/11/07 05:51:05;;;;;;;1.42;0.80;;;;;;;3.65;64.35;92702.03;4853066;29;20121;-76
2022/11/07 05:53:31;;;;;;;0.75;0.50;;;;;;;3.67;63.81;92701.78;4849947;29;20041;-77
2022/11/07 05:55:57;;;;;;;1.15;0.80;;;;;;;3.68;63.55;92698.19;4881152;29;20050;-75
2022/11/07 05:58:23;;;;;;;2.55;1.00;;;;;;;3.69;63.78;92702.31;4847359;29;20097;-78
2022/11/07 06:00:49;;;;;;;1.52;0.90;;;;;;;3.69;63.54;92707.50;4884604;29;20030;-78
2022/11/07 06:03:15;;;;;;;1.17;0.80;;;;;;;3.73;63.49;92700.81;4846468;29;20050;-77
2022/11/07 06:05:41;;;;;;;2.20;0.70;;;;;;;3.73;63.48;92703.41;4858430;29;20386;-78
2022/11/07 06:08:10;;;;;;;1.15;0.77;;;;;;;3.77;63.53;92707.09;4848413;29;20400;-78
2022/11/07 06:10:37;;;;;;;1.30;0.80;;;;;;;3.79;63.42;92705.06;4852670;29;20073;-77
2022/11/07 06:13:06;;;;;;;3.13;0.90;;;;;;;3.80;63.70;92711.78;4843413;29;20048;-78
2022/11/07 06:15:34;;;;;;;0.90;0.70;;;;;;;3.81;63.93;92705.59;4852717;29;20208;-78
2022/11/07 06:18:01;;;;;;;1.52;0.90;;;;;;;3.82;63.77;92703.78;4861671;29;20116;-77
2022/11/07 06:20:28;;;;;;;0.95;0.77;;;;;;;3.84;64.14;92712.88;4858916;29;20136;-78
2022/11/07 06:22:58;;;;;;;1.52;0.90;;;;;;;3.85;64.50;92717.06;4860833;29;20512;-78
2022/11/07 06:25:24;;;;;;;2.45;0.90;;;;;;;3.87;64.86;92719.41;4861924;29;20941;-77
2022/11/07 06:27:51;;;;;;;2.22;1.08;;;;;;;3.89;64.61;92720.72;4859762;29;20453;-77
2022/11/07 06:30:17;;;;;;;4.50;1.10;;;;;;;4.40;64.37;92719.81;4882152;29;20034;-77
2022/11/07 06:32:45;;;;;;;2.30;1.20;;;;;;;5.37;63.12;92728.50;4841162;29;20417;-77
2022/11/07 06:35:11;;;;;;;2.35;1.10;;;;;;;6.31;59.79;92731.47;4852617;29;20050;-78
2022/11/07 06:37:37;;;;;;;1.02;0.80;;;;;;;7.20;56.16;92730.41;4858893;29;20512;-78
2022/11/07 06:40:03;;;;;;;2.15;1.02;;;;;;;8.07;54.29;92727.00;4860019;29;20132;-78
2022/11/07 06:42:29;;;;;;;1.58;1.05;;;;;;;8.92;51.28;92732.19;4862533;29;20055;-78
2022/11/07 06:44:55;;;;;;;2.40;0.95;;;;;;;9.74;49.80;92734.25;4829028;29;20037;-78
2022/11/07 06:47:20;;;;;;;1.85;0.93;;;;;;;10.51;46.88;92741.38;4890764;29;20037;-78
2022/11/07 06:49:46;;;;;;;1.08;0.90;;;;;;;11.31;46.34;92736.47;4861201;29;20503;-78
2022/11/07 06:52:11;;;;;;;1.60;1.05;;;;;;;12.02;43.57;92735.41;4873572;29;20238;-78
2022/11/07 06:54:37;;;;;;;1.77;1.00;;;;;;;12.75;42.83;92740.13;4860706;29;20053;-78
2022/11/07 06:57:02;;;;;;;2.85;1.40;;;;;;;13.49;42.40;92738.06;4846156;29;20412;-78
2022/11/07 06:59:28;;;;;;;3.08;1.20;;;;;;;13.99;40.26;92739.03;4860159;29;20082;-78
2022/11/07 07:01:53;;;;;;;2.75;1.50;;;;;;;14.53;38.63;92737.16;4855882;29;20045;-78
2022/11/07 07:04:19;;;;;;;1.90;1.10;;;;;;;14.98;37.74;92744.91;4877095;29;20093;-78
2022/11/07 07:06:45;;;;;;;1.60;1.00;;;;;;;15.68;36.95;92748.41;4862494;29;20048;-78
2022/11/07 07:09:10;;;;;;;0.93;0.68;;;;;;;16.35;35.67;92749.00;4861977;29;20046;-78
2022/11/07 07:11:36;;;;;;;2.00;1.00;;;;;;;17.11;34.89;92753.50;4863853;29;20032;-78
2022/11/07 07:14:05;;;;;;;2.33;1.00;;;;;;;17.76;33.16;92750.59;4863176;29;20049;-78
2022/11/07 07:16:31;;;;;;;2.80;1.10;;;;;;;18.17;32.05;92760.41;4859461;29;20473;-78
2022/11/07 07:18:56;;;;;;;1.98;0.80;;;;;;;18.27;31.17;92764.50;4854733;29;20073;-78
2022/11/07 07:21:22;;;;;;;5.68;1.02;;;;;;;18.54;30.61;92757.84;4865990;29;20066;-79
2022/11/07 07:23:48;;;;;;;2.17;1.00;;;;;;;18.99;30.16;92764.22;4847646;29;20037;-79
2022/11/07 07:26:15;;;;;;;2.55;0.82;;;;;;;20.02;29.05;92771.84;4879250;29;20504;-79
2022/11/07 07:28:41;;;;;;;1.35;0.80;;;;;;;20.21;28.61;92765.13;4878862;29;20062;-79
2022/11/07 07:31:12;;;;;;;1.67;0.68;;;;;;;20.25;27.74;92771.31;4879052;29;20153;-79
2022/11/07 07:33:37;;;;;;;0.77;0.70;;;;;;;20.89;26.70;92772.97;4869794;29;20041;-79
2022/11/07 07:36:03;;;;;;;1.02;0.80;;;;;;;20.53;27.56;92785.34;4863312;29;20042;-79
2022/11/07 07:38:29;;;;;;;1.13;0.80;;;;;;;20.87;26.85;92782.41;4848864;29;20049;-79
2022/11/07 07:40:57;;;;;;;1.40;0.90;;;;;;;21.04;27.27;92786.63;4865365;29;20052;-79
2022/11/07 07:43:23;;;;;;;1.80;0.80;;;;;;;21.17;26.81;92783.53;4864281;29;20601;-79
2022/11/07 07:45:48;;;;;;;3.15;0.82;;;;;;;21.23;26.04;92783.25;4863617;29;20082;-80
2022/11/07 07:48:14;;;;;;;1.85;1.10;;;;;;;21.68;25.89;92785.44;4865663;29;20033;-79
2022/11/07 07:50:39;;;;;;;2.22;1.30;;;;;;;22.18;27.50;92789.16;4847163;29;20049;-79
2022/11/07 07:53:05;;;;;;;2.33;1.35;;;;;;;21.93;27.98;92798.53;4865085;29;20255;-79
2022/11/07 07:55:30;;;;;;;2.50;1.38;;;;;;;21.50;27.66;92798.38;4848094;29;20066;-79
2022/11/07 07:57:56;;;;;;;3.80;1.48;;;;;;;21.56;28.53;92809.53;4864945;29;20488;-79
2022/11/07 08:00:22;;;;;;;2.65;1.30;;;;;;;20.82;29.68;92811.94;4863608;29;20033;-79
2022/11/07 08:02:47;;;;;;;3.03;1.27;;;;;;;21.48;28.23;92813.94;4864966;29;20029;-78
2022/11/07 08:05:14;;;;;;;1.95;1.10;;;;;;;21.51;27.89;92818.56;4862994;29;20041;-79
2022/11/07 08:07:47;;;;;;;2.30;1.17;;;;;;;20.90;27.93;92817.09;4878368;29;20033;-79
2022/11/07 08:10:13;;;;;;;2.53;1.30;;;;;;;20.87;29.17;92828.41;4864347;29;20053;-79
2022/11/07 08:12:47;;;;;;;1.75;1.10;;;;;;;20.95;28.32;92821.38;4863512;29;20165;-78
2022/11/07 08:15:14;;;;;;;2.25;1.10;;;;;;;20.46;28.28;92821.63;4862793;29;20042;-79
2022/11/07 08:17:40;;;;;;;2.33;1.20;;;;;;;21.31;27.57;92817.69;4863641;29;20041;-79
2022/11/07 08:20:10;;;;;;;2.83;1.45;;;;;;;21.53;28.92;92821.66;4878909;29;20056;-79
2022/11/07 08:22:36;;;;;;;5.03;1.58;;;;;;;20.57;30.65;92823.47;4863712;29;20491;-78
2022/11/07 08:25:03;;;;;;;3.25;1.60;;;;;;;19.59;33.49;92830.88;4863900;29;20555;-79
2022/11/07 08:27:29;;;;;;;3.97;1.65;;;;;;;18.34;35.29;92822.28;4862851;29;20069;-78
2022/11/07 08:29:56;;;;;;;5.40;1.80;;;;;;;17.39;37.14;92819.19;4861683;29;20079;-78
2022/11/07 08:32:23;;;;;;;2.85;1.52;;;;;;;17.03;38.23;92826.53;4863236;29;20153;-78
2022/11/07 08:34:48;;;;;;;4.07;1.70;;;;;;;16.32;38.69;92829.63;4863751;29;20053;-78
2022/11/07 08:37:14;;;;;;;3.85;1.60;;;;;;;16.39;40.04;92829.13;4862975;29;20033;-78
2022/11/07 08:39:39;;;;;;;6.45;1.50;;;;;;;16.19;38.18;92835.88;4863370;29;20089;-78
2022/11/07 08:42:05;;;;;;;3.33;1.70;;;;;;;16.18;39.36;92832.44;4863266;29;20109;-78
2022/11/07 08:44:35;;;;;;;3.60;1.58;;;;;;;16.15;39.14;92841.00;4862601;29;20081;-78
2022/11/07 08:47:04;;;;;;;5.30;1.63;;;;;;;15.50;38.98;92839.97;4862530;29;20053;-78
2022/11/07 08:49:29;;;;;;;2.90;1.50;;;;;;;15.84;41.44;92843.00;4861310;29;20038;-78
2022/11/07 08:51:55;;;;;;;3.40;1.60;;;;;;;15.66;40.83;92839.53;4862481;29;20041;-78
2022/11/07 08:54:21;;;;;;;4.07;1.70;;;;;;;15.48;41.67;92841.38;4845789;29;20102;-78
2022/11/07 08:56:47;;;;;;;4.60;1.70;;;;;;;15.09;41.87;92849.00;4861295;29;20037;-78
2022/11/07 08:59:13;;;;;;;3.53;1.58;;;;;;;15.24;42.28;92849.66;4861676;29;20034;-78
2022/11/07 09:01:39;;;;;;;5.80;1.70;;;;;;;15.05;41.71;92848.06;4861656;29;20045;-78
2022/11/07 09:04:05;;;;;;;3.55;1.63;;;;;;;14.89;42.13;92846.91;4862161;29;20040;-78
2022/11/07 09:06:33;;;;;;;3.30;1.50;;;;;;;15.02;41.58;92853.16;4862586;29;20076;-78
2022/11/07 09:08:59;;;;;;;2.35;1.20;;;;;;;14.88;40.95;92854.06;4861577;29;20034;-78
2022/11/07 09:11:26;;;;;;;3.85;1.83;;;;;;;14.46;42.21;92863.25;4860063;29;20413;-78
2022/11/07 09:13:53;;;;;;;4.57;1.70;;;;;;;14.48;42.52;92855.81;4860691;29;20400;-78
2022/11/07 09:16:19;;;;;;;5.40;1.60;;;;;;;14.63;40.90;92854.69;4875868;29;20041;-78
2022/11/07 09:18:45;;;;;;;2.30;1.30;;;;;;;14.85;38.37;92851.22;4860745;29;20045;-78
2022/11/07 09:21:11;;;;;;;1.42;1.02;;;;;;;14.75;36.31;92842.50;4860105;29;20033;-78
2022/11/07 09:23:37;;;;;;;2.60;1.20;;;;;;;14.86;36.88;92855.41;4859979;29;20038;-78
2022/11/07 09:26:03;;;;;;;2.15;1.10;;;;;;;14.65;34.64;92855.94;4861602;29;20034;-78
2022/11/07 09:28:29;;;;;;;1.67;1.00;;;;;;;14.74;34.73;92848.84;4875354;29;20109;-78
2022/11/07 09:30:56;;;;;;;1.55;1.00;;;;;;;14.66;34.39;92856.69;4860812;29;20037;-78
2022/11/07 09:33:22;;;;;;;0.98;0.85;;;;;;;14.56;33.77;92863.00;4875731;29;20078;-78
2022/11/07 09:35:48;;;;;;;1.83;1.00;;;;;;;14.81;34.05;92861.59;4861579;29;20037;-78
2022/11/07 09:38:15;;;;;;;2.08;1.20;;;;;;;14.50;36.92;92872.06;4861754;29;20045;-78
2022/11/07 09:40:55;;;;;;;4.25;1.15;;;;;;;14.14;36.69;92865.81;4861321;29;20042;-78
2022/11/07 09:43:24;;;;;;;2.78;1.25;;;;;;;14.25;38.49;92869.00;4842664;29;20046;-78
2022/11/07 09:46:08;;;;;;;4.45;1.50;;;;;;;14.28;40.13;92870.25;4856619;29;20044;-78
2022/11/07 09:48:46;;;;;;;3.40;1.60;;;;;;;14.46;40.77;92865.88;4865176;29;20048;-77
2022/11/07 09:51:37;;;;;;;3.90;1.30;;;;;;;14.13;39.51;92871.38;4860105;29;20177;-78
2022/11/07 09:54:06;;;;;;;8.15;1.58;;;;;;;14.25;41.93;92876.88;4875698;29;20030;-78
2022/11/07 09:56:33;;;;;;;4.72;1.30;;;;;;;14.06;36.55;92878.91;4862228;29;20033;-78
2022/11/07 09:59:05;;;;;;;1.98;1.25;;;;;;;13.95;38.26;92876.47;4862784;29;20097;-78
2022/11/07 10:01:31;;;;;;;;;;;;;;;14.07;38.66;92877.81;4864620;29;20098;-78
2022/11/07 10:03:58;;;;;;;1.90;1.13;;;;;;;14.31;36.52;92873.03;4864156;29;19916;-78
2022/11/07 10:06:28;;;;;;;2.15;1.25;;;;;;;14.35;37.43;92874.00;4862925;29;20049;-78
2022/11/07 10:09:20;;;;;;;3.20;1.30;;;;;;;14.40;39.80;92877.59;4864098;29;20386;-78
2022/11/07 10:11:57;;;;;;;4.70;1.40;;;;;;;14.26;40.08;92877.66;4862840;29;20037;-77
2022/11/07 10:14:36;;;;;;;4.95;1.30;;;;;;;14.06;35.77;92889.44;4863243;29;20124;-78
2022/11/07 10:17:32;;;;;;;3.92;1.67;;;;;;;13.88;38.62;92881.38;4863393;29;20502;-78
2022/11/07 10:20:18;;;;;;;3.60;1.20;;;;;;;13.86;38.11;92888.78;4862907;29;20038;-78
2022/11/07 10:22:52;;;;;;;2.72;1.30;;;;;;;13.87;39.09;92890.34;4862825;29;20048;-78
2022/11/07 10:25:29;;;;;;;3.03;1.50;;;;;;;14.05;38.79;92893.91;4845372;29;20069;-78
2022/11/07 10:28:21;;;;;;;3.78;1.33;;;;;;;14.06;40.81;92889.44;4845753;29;20090;-78
2022/11/07 10:30:49;;;;;;;1.97;1.20;;;;;;;13.84;39.75;92885.66;4842289;29;20425;-78
2022/11/07 10:33:41;;;;;;;5.90;1.50;;;;;;;13.81;39.58;92890.75;4845068;29;20053;-78
2022/11/07 10:36:24;;;;;;;4.30;1.40;;;;;;;13.97;39.06;92889.34;4854194;29;20522;-78
2022/11/07 10:38:50;;;;;;;2.15;1.25;;;;;;;13.53;40.80;92881.06;4861850;29;20065;-78
2022/11/07 10:41:25;;;;;;;1.98;1.20;;;;;;;13.84;39.43;92884.91;4863962;29;20139;-78
2022/11/07 10:43:54;;;;;;;4.22;1.20;;;;;;;13.78;38.37;92886.06;4862009;29;20041;-78
2022/11/07 10:46:21;;;;;;;4.07;1.40;;;;;;;13.91;38.87;92888.66;4863305;29;20033;-78
2022/11/07 10:49:01;;;;;;;2.88;1.20;;;;;;;14.10;39.43;92887.75;4894277;29;20077;-78
2022/11/07 10:51:39;;;;;;;2.90;1.20;;;;;;;14.18;39.20;92884.41;4893404;29;20029;-78
2022/11/07 10:54:35;;;;;;;2.67;1.25;;;;;;;13.85;40.25;92881.97;4863116;29;20412;-78
2022/11/07 10:57:05;;;;;;;2.78;1.33;;;;;;;13.94;40.39;92872.31;4862935;29;20185;-78
2022/11/07 10:59:33;;;;;;;2.72;1.40;;;;;;;13.93;40.43;92873.38;4862789;29;20041;-78
2022/11/07 11:02:00;;;;;;;2.10;1.30;;;;;;;13.89;41.04;92875.06;4863478;29;20037;-78
2022/11/07 11:04:31;;;;;;;2.88;1.40;;;;;;;13.95;41.08;92881.75;4862424;29;20108;-78
2022/11/07 11:07:08;;;;;;;2.47;1.30;;;;;;;14.09;42.00;92881.69;4861529;29;20074;-78
2022/11/07 11:09:34;;;;;;;3.90;1.50;;;;;;;14.34;43.40;92874.28;4861970;29;20297;-78
2022/11/07 11:12:12;;;;;;;2.83;1.35;;;;;;;14.34;41.38;92877.72;4876891;29;20040;-78
2022/11/07 11:14:38;;;;;;;2.63;1.30;;;;;;;14.48;39.68;92871.63;4862634;29;20413;-78
2022/11/07 11:17:04;;;;;;;2.75;1.17;;;;;;;14.65;41.13;92882.28;4881433;29;20105;-78
2022/11/07 11:19:32;;;;;;;3.20;1.30;;;;;;;14.54;40.76;92884.38;4862576;29;20507;-78
2022/11/07 11:21:58;;;;;;;3.03;1.38;;;;;;;14.55;40.46;92878.03;4853003;29;20069;-79
2022/11/07 11:24:28;;;;;;;2.92;1.42;;;;;;;14.67;41.22;92874.84;4862358;29;20196;-78
2022/11/07 11:26:59;;;;;;;3.90;1.30;;;;;;;14.64;42.20;92870.19;4848619;29;20049;-78
2022/11/07 11:29:39;;;;;;;2.67;1.40;;;;;;;14.29;41.07;92875.19;4873708;29;20048;-78
2022/11/07 11:32:13;;;;;;;2.78;1.40;;;;;;;14.41;42.98;92872.03;4867769;29;20057;-78
2022/11/07 11:34:41;;;;;;;3.30;1.55;;;;;;;14.12;43.68;92867.19;4861363;29;20124;-78
2022/11/07 11:37:20;;;;;;;3.60;1.45;;;;;;;14.02;45.62;92854.25;4865452;29;20040;-78
2022/11/07 11:39:45;;;;;;;4.15;1.52;;;;;;;14.08;45.17;92864.34;4863709;29;20037;-80
2022/11/07 11:42:35;;;;;;;3.05;1.38;;;;;;;14.27;42.66;92860.78;4860802;29;20041;-79
2022/11/07 11:45:24;;;;;;;2.58;1.30;;;;;;;14.56;41.50;92855.09;4870510;29;20108;-79
2022/11/07 11:48:19;;;;;;;2.80;1.38;;;;;;;14.16;43.91;92849.69;4836169;29;20081;-79
2022/11/07 11:50:51;;;;;;;2.50;1.40;;;;;;;14.49;40.73;92852.09;4853121;29;20528;-79
2022/11/07 11:53:19;;;;;;;2.55;1.40;;;;;;;14.74;43.44;92845.44;4860062;29;20033;-80
2022/11/07 11:56:11;;;;;;;3.30;1.50;;;;;;;14.56;42.18;92855.88;4861559;29;20113;-79